KFSI/FSI METAR and TAF weather

Enter ICAO airport designator
Station Type Date Time Source
KFSI METAR 2019/12/09 13:56 UTC NOAA

KFSI 091356Z AUTO 00000KT 10SM FEW150 BKN190 12/07 A2970 RMK AO2 SLP054 T01220065


Station Type Date Time Source
KFSI Decoded METAR 2019/12/09 13:56 UTC NOAA

Fort Sill, OK, United States (KFSI) 34-36N 098-24W 360M
Dec 09, 2019 - 08:56 AM EST / 2019.12.09 1356 UTC
Wind: Calm:0
Visibility: 10 mile(s):0
Sky conditions: mostly cloudy
Temperature: 54.0 F (12.2 C)
Dew Point: 43.7 F (6.5 C)
Relative Humidity: 68%
Pressure (altimeter): 29.7 in. Hg (1005 hPa)
ob: KFSI 091356Z AUTO 00000KT 10SM FEW150 BKN190 12/07 A2970 RMK AO2 SLP054 T01220065
cycle: 14

Station Type Date Time Source
KFSI TAF 2019/12/06 22:03 UTC NOAA

TAF KFSI 062200Z 0622/0804 01009KT 9999 FEW250 QNH3028INS
BECMG 0715/0716 19009KT 9999 FEW150 QNH3008INS TX13/0721Z TN01/0711Z LAST NO
AMDS AFT 0704 NEXT 0914

Example: see airport list